Hauptseite
METAR-TAF:

METAR-TAF

Flughäfen :

Fliegerhorst Wunstorf

Wunstorf, Deutschland

Breite: 52-27N, Länge: 009-26E, Höhe: 57 m

Beobachtung

Neuester Wetterbericht von vor 32 Minuten, um 07:20 UTC
Wind 14 kt aus West/Südwest
Temperatur 12°C
Luftfeuchtigkeit 82%
Luftdruck 1017 hPa
Sichtweite: 4900 m

METAR: ETNW 220720Z AUTO 24014KT 4900 // ////// 12/09 Q1017 ///

Zeit: 09:52 (07:52 UTC)


TAF: fehlend

Wetterbeobachtungen und Prognosen von mehr als 4000 Flughäfen (METAR und TAF Bericht).

Die verfügbaren Stationen werden durch gelbe und rote Markierungen auf der Karte dargestellt.

Führen Sie die Maus auf sie, um den Namen der Station zu sehen.

Darauf klicken, um die Beobachtung von Wetterbeobachtungen und Prognosen zu sehen.

Um die Karte zu ändern : klicken Sie auf den grünen Tasten mit einem schwarzen Kreuz Zum Vergrößern, auf den grünen Button mit einem Gedankenstrich zu verkleinern, oder auf die grünen Pfeile für benachbarte Karten.


METAR-TAF: